createdAt,value
2018-09-04T00:00:49.555Z,26.4
2018-09-04T00:02:50.563Z,27.3
2018-09-04T00:04:50.016Z,27.3
2018-09-04T00:06:50.250Z,27.0
2018-09-04T00:08:50.366Z,27.3
2018-09-04T00:10:50.341Z,27.7
2018-09-04T00:12:50.435Z,27.7
2018-09-04T00:14:50.325Z,27.8
2018-09-04T00:16:50.440Z,27.5
2018-09-04T00:18:50.557Z,27.8
2018-09-04T00:20:49.566Z,28.1
2018-09-04T00:22:49.668Z,27.5
2018-09-04T00:24:49.645Z,27.5
2018-09-04T00:26:49.837Z,27.5
2018-09-04T00:28:49.932Z,28.1
2018-09-04T00:30:49.890Z,28.2
2018-09-04T00:32:49.855Z,29.5
2018-09-04T00:34:50.189Z,30.3
2018-09-04T00:36:50.347Z,30.3
2018-09-04T00:38:50.355Z,29.0
2018-09-04T00:40:50.346Z,29.6
2018-09-04T00:42:50.316Z,30.6
2018-09-04T00:44:50.250Z,30.6
2018-09-04T00:46:50.403Z,27.8
2018-09-04T00:48:50.341Z,27.5
2018-09-04T00:50:50.355Z,27.8
2018-09-04T00:52:50.402Z,27.8
2018-09-04T00:54:50.386Z,27.0
2018-09-04T00:56:49.610Z,26.0
2018-09-04T00:58:49.580Z,27.1
2018-09-04T01:00:49.808Z,27.4
2018-09-04T01:02:49.905Z,27.4
2018-09-04T01:04:50.169Z,28.4
2018-09-04T01:06:50.264Z,26.6
2018-09-04T01:08:50.340Z,26.6
2018-09-04T01:10:50.396Z,28.2
2018-09-04T01:12:50.390Z,28.2
2018-09-04T01:14:50.457Z,29.3
2018-09-04T01:16:49.640Z,27.3
2018-09-04T01:18:49.681Z,27.3
2018-09-04T01:20:49.693Z,28.8
2018-09-04T01:22:49.703Z,28.8
2018-09-04T01:24:49.865Z,29.2
2018-09-04T01:26:50.044Z,30.8
2018-09-04T01:28:50.022Z,30.3
2018-09-04T01:30:49.992Z,30.3
2018-09-04T01:32:50.103Z,32.6
2018-09-04T01:34:50.359Z,31.7
2018-09-04T01:36:49.578Z,33.3
2018-09-04T01:38:49.550Z,34.2
2018-09-04T01:40:49.646Z,34.2
2018-09-04T01:42:49.631Z,34.4
2018-09-04T01:44:49.667Z,35.5
2018-09-04T01:46:49.915Z,34.5
2018-09-04T01:48:49.900Z,34.5
2018-09-04T01:50:50.050Z,34.5
2018-09-04T01:52:50.195Z,38.1
2018-09-04T01:54:50.366Z,38.1
2018-09-04T01:56:49.583Z,37.9
2018-09-04T01:58:49.722Z,38.5
2018-09-04T02:00:49.693Z,38.5
2018-09-04T02:02:49.767Z,39.7
2018-09-04T02:04:50.045Z,40.2
2018-09-04T02:06:50.307Z,43.3
2018-09-04T02:08:50.325Z,42.4
2018-09-04T02:10:50.299Z,42.4
2018-09-04T02:12:49.528Z,43.0
2018-09-04T02:14:49.641Z,42.7
2018-09-04T02:16:49.825Z,44.2
2018-09-04T02:18:49.843Z,44.2
2018-09-04T02:20:49.886Z,41.7
2018-09-04T02:22:49.819Z,41.7
2018-09-04T02:24:49.790Z,40.7
2018-09-04T02:26:49.947Z,40.6
2018-09-04T02:28:49.951Z,39.7
2018-09-04T02:30:50.216Z,39.7
2018-09-04T02:32:50.202Z,38.8
2018-09-04T02:34:49.611Z,38.8
2018-09-04T02:36:49.803Z,38.7
2018-09-04T02:38:49.900Z,38.6
2018-09-04T02:40:49.967Z,38.6
2018-09-04T02:42:49.999Z,38.8
2018-09-04T02:44:50.130Z,38.7
2018-09-04T02:46:50.195Z,39.2
2018-09-04T02:48:50.313Z,39.2
2018-09-04T02:50:49.533Z,40.2
2018-09-04T02:52:50.467Z,39.3
2018-09-04T02:54:50.516Z,39.3
2018-09-04T02:56:49.670Z,37.4
2018-09-04T02:58:49.819Z,37.2
2018-09-04T03:00:49.807Z,37.2
2018-09-04T03:02:49.803Z,37.7
2018-09-04T03:04:50.126Z,35.6
2018-09-04T03:06:50.239Z,35.6
2018-09-04T03:08:50.199Z,35.7
2018-09-04T03:10:50.219Z,37.3
2018-09-04T03:12:50.126Z,36.9
2018-09-04T03:14:50.098Z,38.6
2018-09-04T03:16:50.188Z,39.9
2018-09-04T03:18:50.248Z,39.9
2018-09-04T03:20:50.230Z,40.9
2018-09-04T03:22:50.338Z,40.8
2018-09-04T03:24:50.341Z,40.8
2018-09-04T03:26:50.497Z,41.0
2018-09-04T03:28:50.483Z,40.9
2018-09-04T03:30:50.463Z,40.9
2018-09-04T03:32:49.522Z,42.8
2018-09-04T03:34:50.037Z,42.8
2018-09-04T03:36:50.192Z,44.2
2018-09-04T03:38:50.222Z,45.7
2018-09-04T03:40:50.309Z,44.3
2018-09-04T03:42:50.295Z,47.0
2018-09-04T03:44:50.287Z,46.0
2018-09-04T03:46:50.486Z,46.0
2018-09-04T03:48:50.398Z,48.6
2018-09-04T03:50:50.473Z,48.6
2018-09-04T03:52:49.585Z,45.9
2018-09-04T03:54:49.566Z,47.5
2018-09-04T03:56:49.862Z,47.5
2018-09-04T03:58:49.849Z,47.7
2018-09-04T04:00:49.821Z,48.4
2018-09-04T04:02:50.042Z,48.5
2018-09-04T04:04:50.305Z,48.5
2018-09-04T04:06:49.707Z,48.4
2018-09-04T04:08:49.846Z,53.6
2018-09-04T04:10:49.866Z,49.3
2018-09-04T04:12:49.910Z,49.3
2018-09-04T04:14:49.907Z,50.7
2018-09-04T04:16:50.003Z,51.4
2018-09-04T04:18:50.097Z,55.5
2018-09-04T04:20:50.102Z,51.9
2018-09-04T04:22:50.055Z,50.6
2018-09-04T04:24:50.052Z,50.6
2018-09-04T04:26:49.733Z,51.1
2018-09-04T04:28:49.812Z,51.1
2018-09-04T04:30:49.820Z,50.4
2018-09-04T04:32:49.876Z,50.4
2018-09-04T04:34:50.211Z,50.6
2018-09-04T04:36:50.329Z,49.8
2018-09-04T04:38:50.323Z,50.5
2018-09-04T04:40:50.420Z,50.1
2018-09-04T04:42:50.504Z,50.8
2018-09-04T04:44:50.508Z,51.7
2018-09-04T04:46:49.725Z,51.7
2018-09-04T04:48:49.789Z,52.6
2018-09-04T04:50:49.786Z,50.3
2018-09-04T04:52:49.876Z,50.7
2018-09-04T04:54:49.836Z,50.7
2018-09-04T04:56:50.052Z,51.4
2018-09-04T04:58:50.036Z,50.6
2018-09-04T05:00:50.068Z,51.4
2018-09-04T05:02:50.011Z,48.2
2018-09-04T05:04:50.303Z,48.2
2018-09-04T05:06:49.618Z,49.6
2018-09-04T05:08:49.612Z,48.4
2018-09-04T05:10:49.645Z,47.3
2018-09-04T05:12:49.686Z,47.1
2018-09-04T05:14:49.679Z,47.1
2018-09-04T05:16:49.938Z,47.0
2018-09-04T05:18:50.009Z,46.2
2018-09-04T05:20:49.996Z,45.8
2018-09-04T05:22:50.296Z,45.8
2018-09-04T05:24:50.387Z,46.6
2018-09-04T05:26:49.548Z,46.4
2018-09-04T05:28:49.553Z,46.3
2018-09-04T05:30:50.490Z,48.4
2018-09-04T05:32:49.623Z,48.4
2018-09-04T05:34:49.955Z,47.0
2018-09-04T05:36:49.999Z,47.0
2018-09-04T05:38:49.577Z,47.2
2018-09-04T05:40:49.676Z,47.2
2018-09-04T05:42:49.660Z,48.7
2018-09-04T05:44:49.707Z,48.7
2018-09-04T05:46:50.024Z,49.0
2018-09-04T05:48:50.097Z,49.6
2018-09-04T05:50:50.154Z,46.9
2018-09-04T05:52:50.235Z,46.9
2018-09-04T05:54:50.377Z,46.5
2018-09-04T05:56:49.677Z,49.1
2018-09-04T05:58:49.705Z,46.8
2018-09-04T06:00:49.746Z,46.8
2018-09-04T06:02:49.758Z,51.2
2018-09-04T06:04:50.030Z,48.0
2018-09-04T06:06:50.351Z,47.2
2018-09-04T06:08:50.458Z,45.9
2018-09-04T06:10:50.479Z,45.9
2018-09-04T06:12:50.530Z,45.9
2018-09-04T06:14:49.525Z,45.7
2018-09-04T06:16:49.622Z,48.0
2018-09-04T06:18:49.667Z,47.2
2018-09-04T06:20:49.730Z,47.2
2018-09-04T06:22:49.745Z,46.0
2018-09-04T06:24:49.761Z,47.3
2018-09-04T06:26:49.866Z,47.3
2018-09-04T06:28:49.853Z,46.1
2018-09-04T06:30:49.848Z,47.6
2018-09-04T06:32:49.839Z,46.2
2018-09-04T06:34:50.256Z,45.8
2018-09-04T06:36:50.716Z,47.6
2018-09-04T06:38:50.006Z,46.4
2018-09-04T06:40:50.065Z,46.4
2018-09-04T06:42:50.023Z,46.5
2018-09-04T06:44:49.966Z,45.8
2018-09-04T06:46:50.062Z,45.8
2018-09-04T06:48:50.120Z,48.9
2018-09-04T06:50:50.095Z,48.9
2018-09-04T06:52:50.095Z,48.2
2018-09-04T06:54:50.189Z,46.4
2018-09-04T06:56:50.312Z,48.2
2018-09-04T06:58:50.348Z,48.2
2018-09-04T07:00:50.260Z,48.9
2018-09-04T07:02:50.347Z,49.3
2018-09-04T07:04:49.771Z,49.3
2018-09-04T07:06:49.952Z,51.8
2018-09-04T07:08:49.916Z,51.8
2018-09-04T07:10:49.935Z,49.4
2018-09-04T07:12:49.886Z,50.1
2018-09-04T07:14:49.887Z,48.4
2018-09-04T07:16:50.173Z,54.0
2018-09-04T07:18:50.252Z,54.0
2018-09-04T07:20:50.333Z,54.3
2018-09-04T07:22:50.333Z,52.1
2018-09-04T07:24:50.323Z,51.7
2018-09-04T07:26:49.658Z,51.6
2018-09-04T07:28:49.705Z,51.6
2018-09-04T07:30:49.719Z,52.5
2018-09-04T07:32:49.802Z,53.3
2018-09-04T07:34:50.271Z,53.2
2018-09-04T07:36:50.381Z,53.2
2018-09-04T07:38:50.521Z,52.1
2018-09-04T07:40:50.473Z,51.2
2018-09-04T07:42:49.540Z,51.7
2018-09-04T07:44:49.530Z,52.0
2018-09-04T07:46:49.710Z,52.0
2018-09-04T07:48:49.796Z,50.7
2018-09-04T07:50:49.718Z,50.7
2018-09-04T07:52:49.694Z,50.8
2018-09-04T07:54:49.730Z,50.7
2018-09-04T07:56:49.810Z,50.7
2018-09-04T07:58:49.786Z,50.0
2018-09-04T08:00:49.838Z,51.3
2018-09-04T08:02:50.007Z,45.9
2018-09-04T08:04:50.434Z,44.9
2018-09-04T08:06:49.557Z,44.9
2018-09-04T08:08:49.534Z,47.6
2018-09-04T08:10:49.619Z,47.6
2018-09-04T08:12:49.633Z,45.5
2018-09-04T08:14:49.714Z,45.5
2018-09-04T08:16:49.911Z,46.2
2018-09-04T08:18:49.891Z,45.3
2018-09-04T08:20:50.206Z,46.0
2018-09-04T08:22:49.756Z,42.9
2018-09-04T08:24:49.766Z,41.1
2018-09-04T08:26:49.871Z,41.1
2018-09-04T08:28:49.931Z,42.3
2018-09-04T08:30:49.956Z,44.6
2018-09-04T08:32:50.108Z,43.3
2018-09-04T08:34:49.660Z,43.3
2018-09-04T08:36:49.928Z,43.8
2018-09-04T08:38:50.007Z,44.3
2018-09-04T08:40:50.053Z,44.4
2018-09-04T08:42:50.072Z,45.6
2018-09-04T08:44:50.145Z,45.6
2018-09-04T08:46:50.266Z,44.6
2018-09-04T08:48:50.256Z,44.3
2018-09-04T08:50:50.354Z,43.4
2018-09-04T08:52:49.520Z,43.8
2018-09-04T08:54:49.531Z,43.8
2018-09-04T08:56:49.670Z,44.8
2018-09-04T08:58:49.827Z,46.2
2018-09-04T09:00:49.820Z,46.0
2018-09-04T09:02:49.814Z,45.7
2018-09-04T09:04:50.130Z,45.7
2018-09-04T09:06:50.283Z,43.6
2018-09-04T09:08:50.297Z,45.7
2018-09-04T09:10:50.306Z,45.7
2018-09-04T09:12:50.337Z,45.7
2018-09-04T09:14:50.308Z,45.4
2018-09-04T09:16:50.772Z,45.4
2018-09-04T09:18:50.227Z,46.8
2018-09-04T09:20:50.244Z,44.5
2018-09-04T09:22:50.446Z,44.5
2018-09-04T09:24:49.743Z,45.7
2018-09-04T09:26:50.077Z,43.6
2018-09-04T09:28:50.033Z,42.7
2018-09-04T09:30:50.120Z,42.4
2018-09-04T09:32:50.131Z,42.4
2018-09-04T09:34:50.417Z,45.1
2018-09-04T09:36:50.128Z,43.9
2018-09-04T09:38:50.094Z,44.1
2018-09-04T09:40:50.122Z,43.9
2018-09-04T09:42:50.105Z,43.9
2018-09-04T09:44:50.087Z,43.2
2018-09-04T09:46:49.568Z,41.5
2018-09-04T09:48:49.570Z,40.1
2018-09-04T09:50:49.889Z,40.1
2018-09-04T09:52:49.839Z,41.8
2018-09-04T09:54:49.591Z,40.7
2018-09-04T09:56:49.872Z,41.2
2018-09-04T09:58:49.868Z,39.6
2018-09-04T10:00:49.814Z,40.1
2018-09-04T10:02:49.850Z,40.1
2018-09-04T10:04:50.233Z,40.0
2018-09-04T10:06:50.494Z,40.2
2018-09-04T10:08:49.625Z,37.5
2018-09-04T10:10:49.704Z,37.5
2018-09-04T10:12:49.698Z,39.7
2018-09-04T10:14:49.733Z,37.7
2018-09-04T10:16:49.815Z,39.7
2018-09-04T10:18:49.748Z,39.7
2018-09-04T10:20:49.733Z,40.8
2018-09-04T10:22:49.750Z,38.2
2018-09-04T10:24:49.718Z,38.2
2018-09-04T10:26:49.797Z,38.4
2018-09-04T10:28:49.774Z,37.8
2018-09-04T10:30:49.782Z,37.8
2018-09-04T10:32:49.870Z,39.4
2018-09-04T10:34:50.082Z,37.2
2018-09-04T10:36:50.304Z,37.1
2018-09-04T10:38:50.352Z,37.8
2018-09-04T10:40:50.247Z,37.8
2018-09-04T10:42:50.201Z,38.4
2018-09-04T10:44:50.167Z,39.4
2018-09-04T10:46:50.348Z,39.0
2018-09-04T10:48:50.410Z,39.0
2018-09-04T10:50:50.392Z,38.3
2018-09-04T10:52:50.431Z,38.7
2018-09-04T10:54:50.463Z,39.0
2018-09-04T10:56:49.673Z,40.0
2018-09-04T10:58:49.739Z,40.0
2018-09-04T11:00:49.679Z,38.4
2018-09-04T11:02:49.701Z,38.5
2018-09-04T11:04:50.136Z,38.3
2018-09-04T11:06:50.273Z,37.4
2018-09-04T11:08:50.233Z,37.4
2018-09-04T11:10:50.226Z,35.7
2018-09-04T11:12:50.251Z,34.9
2018-09-04T11:14:50.281Z,35.6
2018-09-04T11:16:50.389Z,33.7
2018-09-04T11:18:50.347Z,33.7
2018-09-04T11:20:50.404Z,35.9
2018-09-04T11:22:50.332Z,34.1
2018-09-04T11:24:50.365Z,33.4
2018-09-04T11:26:50.521Z,33.4
2018-09-04T11:28:50.506Z,33.3
2018-09-04T11:30:49.749Z,33.0
2018-09-04T11:32:50.142Z,32.6
2018-09-04T11:34:49.635Z,32.6
2018-09-04T11:36:49.831Z,33.7
2018-09-04T11:38:49.818Z,34.7
2018-09-04T11:40:49.786Z,35.4
2018-09-04T11:42:49.890Z,32.8
2018-09-04T11:44:49.901Z,32.8
2018-09-04T11:46:50.160Z,33.9
2018-09-04T11:48:50.243Z,31.7
2018-09-04T11:50:50.251Z,31.9
2018-09-04T11:52:50.212Z,31.3
2018-09-04T11:54:50.348Z,31.2
2018-09-04T11:56:49.678Z,31.2
2018-09-04T11:58:49.765Z,31.0
2018-09-04T12:00:49.882Z,30.9
2018-09-04T12:02:49.936Z,30.9
2018-09-04T12:04:50.242Z,29.3
2018-09-04T12:06:50.376Z,29.3
2018-09-04T12:08:50.446Z,27.5
2018-09-04T12:10:50.527Z,28.3
2018-09-04T12:12:50.050Z,28.7
2018-09-04T12:14:50.481Z,28.7
2018-09-04T12:16:49.678Z,27.6
2018-09-04T12:18:49.845Z,26.4
2018-09-04T12:20:50.016Z,27.2
2018-09-04T12:22:49.695Z,26.0
2018-09-04T12:24:49.872Z,26.0
2018-09-04T12:26:50.345Z,27.6
2018-09-04T12:28:50.312Z,27.0
2018-09-04T12:30:50.403Z,27.0
2018-09-04T12:32:50.457Z,27.0
2018-09-04T12:36:49.566Z,23.3
2018-09-04T12:38:49.552Z,23.7
2018-09-04T12:40:49.576Z,22.8
2018-09-04T12:42:50.486Z,21.4
2018-09-04T12:44:50.557Z,21.4
2018-09-04T12:46:50.109Z,21.0
2018-09-04T12:48:50.179Z,21.9
2018-09-04T12:50:50.155Z,21.1
2018-09-04T12:52:50.072Z,21.1
2018-09-04T12:54:50.253Z,20.5
2018-09-04T12:56:49.633Z,19.9
2018-09-04T12:58:49.643Z,20.6
2018-09-04T13:00:49.718Z,20.9
2018-09-04T13:02:49.685Z,19.7
2018-09-04T13:04:50.092Z,19.7
2018-09-04T13:06:50.292Z,21.0
2018-09-04T13:08:50.298Z,19.1
2018-09-04T13:10:50.321Z,19.1
2018-09-04T13:12:50.284Z,20.0
2018-09-04T13:14:50.311Z,19.1
2018-09-04T13:16:50.446Z,18.3
2018-09-04T13:18:50.438Z,18.3
2018-09-04T13:20:49.548Z,17.3
2018-09-04T13:22:49.897Z,17.3
2018-09-04T13:24:49.852Z,18.9
2018-09-04T13:26:50.122Z,17.5
2018-09-04T13:28:50.220Z,17.9
2018-09-04T13:30:50.165Z,19.4
2018-09-04T13:32:50.218Z,19.4
2018-09-04T13:34:49.529Z,19.4
2018-09-04T13:36:49.722Z,19.4
2018-09-04T13:38:49.806Z,21.3
2018-09-04T13:40:49.744Z,22.9
2018-09-04T13:42:49.608Z,22.9
2018-09-04T13:44:49.535Z,23.0
2018-09-04T13:46:49.826Z,23.6
2018-09-04T13:48:49.738Z,23.6
2018-09-04T13:50:49.737Z,23.8
2018-09-04T13:52:49.750Z,23.8
2018-09-04T13:54:49.877Z,23.1
2018-09-04T13:56:50.200Z,24.1
2018-09-04T13:58:50.148Z,23.3
2018-09-04T14:00:50.126Z,24.2
2018-09-04T14:02:50.135Z,24.2
2018-09-04T14:04:50.476Z,24.6
2018-09-04T14:06:49.730Z,23.9
2018-09-04T14:08:49.775Z,22.1
2018-09-04T14:10:49.767Z,21.4
2018-09-04T14:12:49.823Z,21.4
2018-09-04T14:14:49.781Z,22.4
2018-09-04T14:16:50.026Z,22.6
2018-09-04T14:18:50.221Z,22.9
2018-09-04T14:20:50.328Z,23.4
2018-09-04T14:22:50.390Z,23.4
2018-09-04T14:24:50.433Z,22.5
2018-09-04T14:26:49.705Z,23.0
2018-09-04T14:29:07.051Z,23.3
2018-09-04T14:30:50.406Z,23.3
2018-09-04T14:32:49.998Z,22.2
2018-09-04T14:34:50.334Z,21.7
2018-09-04T14:36:50.936Z,21.8
2018-09-04T14:38:50.063Z,21.8
2018-09-04T14:40:49.995Z,22.4
2018-09-04T14:42:50.075Z,22.4
2018-09-04T14:44:50.291Z,23.1
2018-09-04T14:46:49.711Z,22.7
2018-09-04T14:48:49.825Z,22.7
2018-09-04T14:50:49.967Z,22.1
2018-09-04T14:52:49.969Z,24.6
2018-09-04T14:54:50.014Z,24.2
2018-09-04T14:56:50.233Z,21.5
2018-09-04T14:58:50.488Z,21.5
2018-09-04T15:00:50.541Z,22.8
2018-09-04T15:02:50.503Z,21.7
2018-09-04T15:04:49.928Z,22.2
2018-09-04T15:06:50.204Z,23.6
2018-09-04T15:08:50.176Z,23.6
2018-09-04T15:10:50.183Z,22.5
2018-09-04T15:12:50.134Z,22.9
2018-09-04T15:14:50.094Z,22.0
2018-09-04T15:16:50.207Z,21.6
2018-09-04T15:18:50.335Z,21.6
2018-09-04T15:20:49.640Z,21.6
2018-09-04T15:22:49.673Z,20.5
2018-09-04T15:24:49.778Z,21.2
2018-09-04T15:26:49.900Z,20.8
2018-09-04T15:28:49.818Z,20.8
2018-09-04T15:30:49.740Z,20.2
2018-09-04T15:32:49.796Z,19.8
2018-09-04T15:34:50.102Z,19.8
2018-09-04T15:36:50.336Z,22.2
2018-09-04T15:38:50.520Z,22.0
2018-09-04T15:40:49.560Z,22.4
2018-09-04T15:42:49.726Z,22.3
2018-09-04T15:44:50.092Z,22.3
2018-09-04T15:46:50.372Z,21.5
2018-09-04T15:48:50.399Z,22.1
2018-09-04T15:50:50.503Z,21.4
2018-09-04T15:52:50.473Z,21.8
2018-09-04T15:54:49.713Z,22.7
2018-09-04T15:56:50.134Z,22.4
2018-09-04T15:58:49.668Z,22.4
2018-09-04T16:00:49.864Z,22.4
2018-09-04T16:02:49.846Z,22.2
2018-09-04T16:04:50.118Z,21.2
2018-09-04T16:06:50.302Z,21.2
2018-09-04T16:08:50.334Z,22.1
2018-09-04T16:10:50.303Z,22.5
2018-09-04T16:12:50.346Z,22.4
2018-09-04T16:14:50.331Z,22.9
2018-09-04T16:16:49.531Z,22.9
2018-09-04T16:18:49.548Z,23.2
2018-09-04T16:20:49.547Z,23.2
2018-09-04T16:22:49.700Z,22.1
2018-09-04T16:24:49.691Z,22.9
2018-09-04T16:26:49.868Z,22.9
2018-09-04T16:28:49.799Z,22.1
2018-09-04T16:30:49.755Z,22.5
2018-09-04T16:32:49.736Z,22.5
2018-09-04T16:34:50.435Z,22.1
2018-09-04T16:36:50.259Z,21.8
2018-09-04T16:38:50.218Z,22.6
2018-09-04T16:40:50.201Z,24.7
2018-09-04T16:42:50.181Z,24.7
2018-09-04T16:44:50.106Z,24.9
2018-09-04T16:46:50.297Z,24.1
2018-09-04T16:48:50.458Z,27.2
2018-09-04T16:50:50.420Z,27.4
2018-09-04T16:52:50.398Z,25.1
2018-09-04T16:54:50.355Z,25.1
2018-09-04T16:56:49.812Z,25.5
2018-09-04T16:58:50.134Z,23.7
2018-09-04T17:00:50.120Z,23.7
2018-09-04T17:02:50.064Z,23.8
2018-09-04T17:04:50.489Z,23.8
2018-09-04T17:06:49.678Z,23.3
2018-09-04T17:08:49.744Z,23.6
2018-09-04T17:10:49.740Z,23.5
2018-09-04T17:12:49.910Z,23.5
2018-09-04T17:14:50.028Z,23.5
2018-09-04T17:16:50.267Z,23.6
2018-09-04T17:18:50.253Z,27.6
2018-09-04T17:20:50.202Z,32.5
2018-09-04T17:22:50.249Z,32.5
2018-09-04T17:24:50.198Z,29.9
2018-09-04T17:26:50.459Z,26.2
2018-09-04T17:28:50.435Z,25.3
2018-09-04T17:30:50.408Z,25.3
2018-09-04T17:32:50.311Z,25.1
2018-09-04T17:34:49.585Z,25.8
2018-09-04T17:36:49.744Z,29.7
2018-09-04T17:38:49.759Z,25.6
2018-09-04T17:40:49.817Z,27.3
2018-09-04T17:42:49.941Z,27.3
2018-09-04T17:44:49.973Z,23.7
2018-09-04T17:46:50.170Z,22.5
2018-09-04T17:48:50.208Z,22.9
2018-09-04T17:50:50.161Z,22.9
2018-09-04T17:52:50.177Z,21.6
2018-09-04T17:54:50.249Z,21.7
2018-09-04T17:56:49.702Z,23.4
2018-09-04T17:58:49.697Z,23.4
2018-09-04T18:00:49.909Z,29.4
2018-09-04T18:02:49.957Z,29.4
2018-09-04T18:04:50.147Z,24.8
2018-09-04T18:06:50.313Z,24.8
2018-09-04T18:08:50.320Z,24.8
2018-09-04T18:10:50.273Z,22.3
2018-09-04T18:12:50.313Z,22.3
2018-09-04T18:14:50.356Z,21.7
2018-09-04T18:16:49.614Z,21.8
2018-09-04T18:18:49.579Z,22.3
2018-09-04T18:20:49.558Z,22.3
2018-09-04T18:22:49.699Z,22.8
2018-09-04T18:24:49.684Z,23.3
2018-09-04T18:26:49.906Z,22.3
2018-09-04T18:28:50.061Z,22.9
2018-09-04T18:30:50.159Z,22.4
2018-09-04T18:32:50.197Z,22.4
2018-09-04T18:34:49.617Z,22.4
2018-09-04T18:36:49.856Z,22.2
2018-09-04T18:38:49.826Z,22.3
2018-09-04T18:40:49.822Z,22.0
2018-09-04T18:42:49.783Z,22.8
2018-09-04T18:44:49.739Z,23.0
2018-09-04T18:46:49.922Z,22.3
2018-09-04T18:48:50.146Z,22.3
2018-09-04T18:50:49.680Z,22.5
2018-09-04T18:52:49.976Z,22.4
2018-09-04T18:54:50.052Z,22.7
2018-09-04T18:56:50.184Z,22.7
2018-09-04T18:58:50.187Z,22.3
2018-09-04T19:00:50.198Z,22.3
2018-09-04T19:02:50.396Z,22.5
2018-09-04T19:04:49.768Z,22.5
2018-09-04T19:06:50.004Z,22.4
2018-09-04T19:08:50.418Z,22.4
2018-09-04T19:10:50.382Z,23.4
2018-09-04T19:12:50.386Z,22.9
2018-09-04T19:14:50.390Z,22.9
2018-09-04T19:16:49.628Z,24.6
2018-09-04T19:18:49.695Z,24.6
2018-09-04T19:20:49.663Z,22.3
2018-09-04T19:22:49.756Z,21.9
2018-09-04T19:24:49.737Z,21.6
2018-09-04T19:26:49.986Z,22.6
2018-09-04T19:28:49.936Z,22.6
2018-09-04T19:30:49.900Z,22.4
2018-09-04T19:32:49.917Z,22.8
2018-09-04T19:34:50.216Z,22.9
2018-09-04T19:36:50.371Z,21.9
2018-09-04T19:38:50.473Z,21.9
2018-09-04T19:40:49.552Z,22.0
2018-09-04T19:42:49.736Z,22.4
2018-09-04T19:44:49.769Z,22.6
2018-09-04T19:46:49.879Z,22.6
2018-09-04T19:48:49.892Z,23.4
2018-09-04T19:50:49.884Z,21.7
2018-09-04T19:52:49.850Z,20.8
2018-09-04T19:54:49.864Z,20.8
2018-09-04T19:56:50.012Z,20.7
2018-09-04T19:58:49.993Z,21.3
2018-09-04T20:00:50.211Z,21.3
2018-09-04T20:02:49.681Z,21.6
2018-09-04T20:04:49.985Z,21.6
2018-09-04T20:06:50.140Z,21.3
2018-09-04T20:08:50.245Z,21.8
2018-09-04T20:10:50.307Z,22.1
2018-09-04T20:12:50.346Z,21.9
2018-09-04T20:14:50.344Z,21.2
2018-09-04T20:16:49.546Z,20.6
2018-09-04T20:18:49.629Z,20.6
2018-09-04T20:20:49.597Z,20.6
2018-09-04T20:22:49.686Z,20.7
2018-09-04T20:24:49.710Z,20.7
2018-09-04T20:26:49.957Z,21.5
2018-09-04T20:28:50.000Z,21.8
2018-09-04T20:30:49.987Z,21.3
2018-09-04T20:32:50.017Z,21.2
2018-09-04T20:34:50.456Z,21.2
2018-09-04T20:36:49.723Z,22.7
2018-09-04T20:38:49.767Z,22.7
2018-09-04T20:40:49.790Z,22.2
2018-09-04T20:42:49.863Z,22.2
2018-09-04T20:44:49.920Z,22.2
2018-09-04T20:46:50.180Z,22.2
2018-09-04T20:48:50.255Z,22.6
2018-09-04T20:50:50.234Z,24.1
2018-09-04T20:52:50.370Z,24.1
2018-09-04T20:54:50.373Z,25.5
2018-09-04T20:56:49.569Z,25.5
2018-09-04T20:58:49.629Z,26.0
2018-09-04T21:00:49.616Z,24.3
2018-09-04T21:02:49.568Z,25.0
2018-09-04T21:04:49.867Z,25.0
2018-09-04T21:06:50.031Z,24.0
2018-09-04T21:08:50.125Z,24.5
2018-09-04T21:10:50.116Z,24.5
2018-09-04T21:12:50.166Z,24.1
2018-09-04T21:14:50.126Z,24.1
2018-09-04T21:16:50.318Z,24.9
2018-09-04T21:18:50.374Z,24.4
2018-09-04T21:20:50.446Z,24.4
2018-09-04T21:22:49.532Z,26.9
2018-09-04T21:24:49.522Z,26.9
2018-09-04T21:26:49.684Z,26.4
2018-09-04T21:28:49.736Z,26.6
2018-09-04T21:30:49.746Z,26.6
2018-09-04T21:32:49.756Z,27.9
2018-09-04T21:34:50.014Z,27.9
2018-09-04T21:36:50.209Z,28.2
2018-09-04T21:38:49.542Z,28.2
2018-09-04T21:40:49.621Z,29.4
2018-09-04T21:42:49.837Z,29.4
2018-09-04T21:44:49.861Z,28.0
2018-09-04T21:46:50.229Z,28.7
2018-09-04T21:48:50.185Z,29.0
2018-09-04T21:50:50.153Z,27.8
2018-09-04T21:52:50.271Z,27.8
2018-09-04T21:54:50.176Z,30.9
2018-09-04T21:56:49.544Z,29.7
2018-09-04T21:58:49.638Z,31.3
2018-09-04T22:00:49.709Z,29.7
2018-09-04T22:02:49.720Z,29.7
2018-09-04T22:04:50.265Z,30.2
2018-09-04T22:06:50.499Z,30.8
2018-09-04T22:08:50.520Z,29.4
2018-09-04T22:10:49.552Z,29.4
2018-09-04T22:12:49.545Z,29.7
2018-09-04T22:14:49.613Z,29.4
2018-09-04T22:16:49.781Z,31.7
2018-09-04T22:18:49.831Z,30.3
2018-09-04T22:20:49.806Z,31.0
2018-09-04T22:22:49.865Z,31.0
2018-09-04T22:24:49.848Z,32.9
2018-09-04T22:26:50.030Z,30.9
2018-09-04T22:28:50.066Z,30.5
2018-09-04T22:30:50.017Z,30.5
2018-09-04T22:32:50.139Z,31.2
2018-09-04T22:34:50.474Z,31.5
2018-09-04T22:36:49.651Z,33.4
2018-09-04T22:38:49.695Z,34.6
2018-09-04T22:40:49.677Z,34.6
2018-09-04T22:42:49.795Z,32.8
2018-09-04T22:44:49.801Z,32.2
2018-09-04T22:46:50.227Z,32.6
2018-09-04T22:48:49.525Z,32.6
2018-09-04T22:50:49.603Z,34.5
2018-09-04T22:52:49.594Z,33.0
2018-09-04T22:54:49.662Z,33.9
2018-09-04T22:56:49.839Z,34.7
2018-09-04T22:58:49.885Z,35.0
2018-09-04T23:00:50.025Z,35.0
2018-09-04T23:02:50.093Z,35.7
2018-09-04T23:04:50.399Z,36.0
2018-09-04T23:06:50.477Z,37.3
2018-09-04T23:08:50.513Z,37.3
2018-09-04T23:10:49.537Z,36.9
2018-09-04T23:12:49.751Z,36.9
2018-09-04T23:14:49.792Z,37.0
2018-09-04T23:16:49.936Z,37.1
2018-09-04T23:18:49.983Z,37.1
2018-09-04T23:20:49.998Z,36.8
2018-09-04T23:22:49.976Z,35.1
2018-09-04T23:24:49.998Z,35.4
2018-09-04T23:26:50.325Z,37.4
2018-09-04T23:28:50.286Z,37.4
2018-09-04T23:30:50.366Z,37.4
2018-09-04T23:32:50.410Z,38.8
2018-09-04T23:34:49.821Z,39.0
2018-09-04T23:36:50.051Z,39.8
2018-09-04T23:38:50.033Z,39.8
2018-09-04T23:40:49.988Z,40.1
2018-09-04T23:42:50.005Z,38.3
2018-09-04T23:44:49.992Z,38.3
2018-09-04T23:46:50.377Z,38.2
2018-09-04T23:48:50.356Z,38.2
2018-09-04T23:50:50.456Z,38.4
2018-09-04T23:52:49.571Z,42.1
2018-09-04T23:54:49.643Z,37.6
2018-09-04T23:56:49.926Z,38.9
2018-09-04T23:58:49.945Z,38.9
